Time;durP1;ratioP1;P1;durP2;ratioP2;P2;SDS_P1;SDS_P2;PMS_P1;PMS_P2;Temp;Humidity;BMP_temperature;BMP_pressure;BME280_temperature;BME280_humidity;BME280_pressure;Samples;Min_cycle;Max_cycle;Signal;HPM_P1;HPM_P2
2023/01/26 00:02:08;;;;;;;10.88;4.35;;;;;;;;;;5036253;28;20083;-75
2023/01/26 00:04:34;;;;;;;14.82;5.22;;;;;;;;;;5046477;28;20039;-76
2023/01/26 00:07:00;;;;;;;18.75;5.78;;;;;;;;;;5041897;28;20025;-74
2023/01/26 00:09:26;;;;;;;11.80;4.40;;;;;;;;;;5030605;28;20021;-76
2023/01/26 00:11:52;;;;;;;12.10;5.22;;;;;;;;;;5043978;28;20025;-76
2023/01/26 00:14:18;;;;;;;12.30;3.90;;;;;;;;;;5043359;28;20112;-76
2023/01/26 00:16:44;;;;;;;21.75;5.20;;;;;;;;;;5037562;28;20027;-76
2023/01/26 00:19:10;;;;;;;15.35;4.88;;;;;;;;;;5025910;28;20041;-76
2023/01/26 00:21:36;;;;;;;18.52;5.78;;;;;;;;;;5043242;28;20087;-76
2023/01/26 00:24:03;;;;;;;11.70;5.50;;;;;;;;;;5032843;28;20115;-75
2023/01/26 00:26:29;;;;;;;23.50;5.50;;;;;;;;;;5033404;28;20075;-76
2023/01/26 00:28:55;;;;;;;18.30;5.88;;;;;;;;;;5036527;28;20478;-76
2023/01/26 00:31:23;;;;;;;11.95;4.50;;;;;;;;;;5041969;28;20410;-76
2023/01/26 00:33:49;;;;;;;17.80;5.13;;;;;;;;;;5042774;28;20092;-75
2023/01/26 00:36:15;;;;;;;11.45;4.25;;;;;;;;;;5039626;28;20720;-76
2023/01/26 00:38:42;;;;;;;19.30;6.75;;;;;;;;;;5036187;28;20033;-76
2023/01/26 00:41:08;;;;;;;11.57;3.70;;;;;;;;;;5039830;28;20033;-75
2023/01/26 00:43:34;;;;;;;8.43;3.88;;;;;;;;;;5038796;28;20045;-76
2023/01/26 00:46:00;;;;;;;13.20;4.15;;;;;;;;;;5043241;28;20082;-75
2023/01/26 00:48:26;;;;;;;15.80;4.32;;;;;;;;;;5044069;28;20036;-75
2023/01/26 00:50:53;;;;;;;13.73;4.78;;;;;;;;;;5040766;28;20041;-76
2023/01/26 00:53:19;;;;;;;18.58;4.45;;;;;;;;;;5042341;28;20021;-75
2023/01/26 00:55:45;;;;;;;16.00;4.50;;;;;;;;;;5042458;28;20072;-75
2023/01/26 00:58:11;;;;;;;15.38;4.75;;;;;;;;;;5039767;28;20076;-75
2023/01/26 01:00:38;;;;;;;11.85;4.38;;;;;;;;;;5042487;28;20116;-75
2023/01/26 01:03:05;;;;;;;20.33;5.18;;;;;;;;;;5036854;28;20055;-75
2023/01/26 01:05:31;;;;;;;8.48;3.97;;;;;;;;;;5039709;28;20036;-75
2023/01/26 01:07:57;;;;;;;14.20;5.30;;;;;;;;;;5037801;28;20029;-76
2023/01/26 01:10:26;;;;;;;11.05;4.10;;;;;;;;;;5036356;28;20052;-75
2023/01/26 01:12:52;;;;;;;15.23;4.20;;;;;;;;;;5040845;28;20071;-75
2023/01/26 01:15:18;;;;;;;15.85;4.93;;;;;;;;;;5034624;28;20060;-75
2023/01/26 01:17:44;;;;;;;14.45;4.45;;;;;;;;;;5041875;28;20041;-75
2023/01/26 01:20:10;;;;;;;13.05;3.53;;;;;;;;;;5040175;28;20089;-75
2023/01/26 01:22:36;;;;;;;16.45;4.63;;;;;;;;;;5037667;28;20037;-75
2023/01/26 01:25:03;;;;;;;11.77;4.20;;;;;;;;;;5039464;28;20052;-75
2023/01/26 01:27:29;;;;;;;14.38;4.07;;;;;;;;;;5037831;28;20045;-75
2023/01/26 01:29:55;;;;;;;16.38;6.53;;;;;;;;;;5038841;28;20021;-75
2023/01/26 01:32:21;;;;;;;12.93;4.10;;;;;;;;;;5044141;28;20048;-75
2023/01/26 01:34:48;;;;;;;12.38;4.60;;;;;;;;;;5044177;28;20028;-75
2023/01/26 01:37:14;;;;;;;11.45;4.55;;;;;;;;;;5041529;28;20033;-75
2023/01/26 01:39:40;;;;;;;16.58;4.35;;;;;;;;;;5028195;28;20507;-76
2023/01/26 01:42:06;;;;;;;11.07;4.20;;;;;;;;;;5045971;28;20421;-76
2023/01/26 01:44:36;;;;;;;11.65;3.83;;;;;;;;;;5048206;28;20029;-75
2023/01/26 01:47:05;;;;;;;12.30;3.95;;;;;;;;;;5034862;28;20025;-75
2023/01/26 01:49:33;;;;;;;10.95;4.13;;;;;;;;;;5031935;28;20036;-76
2023/01/26 01:51:59;;;;;;;15.90;4.78;;;;;;;;;;5045133;28;20112;-75
2023/01/26 01:54:32;;;;;;;15.48;4.32;;;;;;;;;;5034591;28;20031;-75
2023/01/26 01:57:00;;;;;;;11.73;4.40;;;;;;;;;;5038381;28;20470;-75
2023/01/26 01:59:26;;;;;;;14.80;6.18;;;;;;;;;;5032963;28;20033;-75
2023/01/26 02:01:53;;;;;;;14.95;5.47;;;;;;;;;;5045831;28;20065;-75
2023/01/26 02:04:20;;;;;;;16.63;5.15;;;;;;;;;;5028360;28;20029;-75
2023/01/26 02:06:53;;;;;;;17.23;4.30;;;;;;;;;;5038939;28;20029;-75
2023/01/26 02:12:08;;;;;;;9.85;3.83;;;;;;;;;;5041817;28;20028;-75
2023/01/26 02:14:34;;;;;;;9.88;4.07;;;;;;;;;;5042843;28;20150;-75
2023/01/26 02:17:00;;;;;;;11.30;3.70;;;;;;;;;;5042457;28;20049;-75
2023/01/26 02:19:31;;;;;;;15.68;4.47;;;;;;;;;;5041901;28;20033;-75
2023/01/26 02:22:00;;;;;;;11.82;4.72;;;;;;;;;;5036881;28;20037;-76
2023/01/26 02:24:29;;;;;;;9.43;3.97;;;;;;;;;;5038988;28;20506;-75
2023/01/26 02:26:55;;;;;;;10.38;3.75;;;;;;;;;;5040511;28;20075;-76
2023/01/26 02:29:21;;;;;;;33.42;4.95;;;;;;;;;;5071160;28;20120;-76
2023/01/26 02:31:48;;;;;;;11.63;4.82;;;;;;;;;;5036211;28;20029;-75
2023/01/26 02:34:14;;;;;;;14.55;4.55;;;;;;;;;;5036545;28;20025;-75
2023/01/26 02:36:40;;;;;;;14.88;3.50;;;;;;;;;;5041358;28;20033;-75
2023/01/26 02:39:17;;;;;;;12.43;4.00;;;;;;;;;;5064415;28;20025;-76
2023/01/26 02:44:29;;;;;;;14.63;5.90;;;;;;;;;;5035051;28;20068;-75
2023/01/26 02:46:55;;;;;;;12.00;3.97;;;;;;;;;;5041106;28;20033;-76
2023/01/26 02:52:06;;;;;;;10.50;4.15;;;;;;;;;;5037137;28;20044;-75
2023/01/26 02:57:17;;;;;;;17.20;4.13;;;;;;;;;;5037838;28;20055;-75
2023/01/26 02:59:43;;;;;;;11.15;6.07;;;;;;;;;;5037392;28;20490;-75
2023/01/26 03:02:10;;;;;;;13.70;4.70;;;;;;;;;;5037286;28;20033;-75
2023/01/26 03:04:36;;;;;;;13.23;3.75;;;;;;;;;;5042041;28;20800;-75
2023/01/26 03:07:02;;;;;;;13.38;4.50;;;;;;;;;;5038575;28;20037;-75
2023/01/26 03:09:28;;;;;;;13.73;3.75;;;;;;;;;;5046063;28;20087;-75
2023/01/26 03:11:54;;;;;;;8.52;4.30;;;;;;;;;;5033944;28;20529;-75
2023/01/26 03:14:20;;;;;;;15.73;4.35;;;;;;;;;;5041796;28;20033;-75
2023/01/26 03:16:46;;;;;;;9.45;3.92;;;;;;;;;;5041786;28;20100;-75
2023/01/26 03:27:28;;;;;;;11.73;4.13;;;;;;;;;;5035229;28;20048;-76
2023/01/26 03:29:55;;;;;;;9.50;4.65;;;;;;;;;;5045702;28;20081;-75
2023/01/26 03:32:21;;;;;;;13.30;3.90;;;;;;;;;;5043202;28;20030;-75
2023/01/26 03:34:47;;;;;;;9.80;3.50;;;;;;;;;;5045993;28;20044;-75
2023/01/26 03:37:13;;;;;;;9.77;4.72;;;;;;;;;;5033887;28;20756;-76
2023/01/26 03:56:23;;;;;;;11.95;4.47;;;;;;;;;;5037948;28;20528;-74
2023/01/26 03:58:56;;;;;;;9.52;3.40;;;;;;;;;;5041412;28;20049;-75
2023/01/26 04:01:27;;;;;;;11.07;3.45;;;;;;;;;;5043684;28;20462;-75
2023/01/26 04:09:24;;;;;;;16.90;3.83;;;;;;;;;;5042908;28;20459;-76
2023/01/26 04:11:50;;;;;;;10.23;3.25;;;;;;;;;;5041724;28;20093;-75
2023/01/26 04:22:44;;;;;;;16.50;3.75;;;;;;;;;;5049935;28;20059;-75
2023/01/26 04:25:12;;;;;;;12.63;3.53;;;;;;;;;;5040265;28;20025;-75
2023/01/26 04:27:38;;;;;;;11.48;3.10;;;;;;;;;;5044211;28;20087;-75
2023/01/26 04:30:05;;;;;;;10.57;3.70;;;;;;;;;;5044074;28;20029;-76
2023/01/26 04:32:31;;;;;;;10.40;2.80;;;;;;;;;;5043234;28;20343;-76
2023/01/26 04:34:57;;;;;;;11.45;4.00;;;;;;;;;;5040086;28;20077;-75
2023/01/26 04:37:23;;;;;;;9.50;3.53;;;;;;;;;;5044500;28;20049;-75
2023/01/26 04:39:49;;;;;;;16.00;3.60;;;;;;;;;;5047499;28;20418;-75
2023/01/26 04:42:15;;;;;;;14.30;3.88;;;;;;;;;;5041496;28;20542;-75
2023/01/26 04:44:41;;;;;;;10.85;3.45;;;;;;;;;;5039414;28;20309;-75
2023/01/26 04:47:07;;;;;;;11.15;3.65;;;;;;;;;;5042783;28;20038;-74
2023/01/26 04:49:33;;;;;;;14.80;3.80;;;;;;;;;;5044819;28;20037;-75
2023/01/26 04:51:59;;;;;;;12.15;3.33;;;;;;;;;;5043812;28;20537;-75
2023/01/26 04:54:26;;;;;;;11.88;4.15;;;;;;;;;;5045836;28;20028;-75
2023/01/26 04:56:52;;;;;;;7.95;3.33;;;;;;;;;;5043996;28;20041;-76
2023/01/26 04:59:18;;;;;;;11.45;3.55;;;;;;;;;;5045789;28;20025;-76
2023/01/26 05:01:44;;;;;;;12.10;4.22;;;;;;;;;;5037644;28;20053;-75
2023/01/26 05:04:11;;;;;;;9.48;3.55;;;;;;;;;;5037360;28;20036;-75
2023/01/26 05:06:38;;;;;;;16.65;3.65;;;;;;;;;;5045075;28;20025;-76
2023/01/26 05:09:04;;;;;;;8.15;2.97;;;;;;;;;;5046169;28;20441;-75
2023/01/26 05:11:31;;;;;;;11.48;3.65;;;;;;;;;;5036127;28;20043;-76
2023/01/26 05:13:57;;;;;;;13.13;3.17;;;;;;;;;;5041377;28;20373;-74
2023/01/26 05:16:23;;;;;;;9.02;3.72;;;;;;;;;;5036333;28;20116;-75
2023/01/26 05:18:49;;;;;;;9.38;3.25;;;;;;;;;;5039787;28;20108;-76
2023/01/26 05:21:15;;;;;;;8.88;3.47;;;;;;;;;;5041499;28;20136;-76
2023/01/26 05:23:41;;;;;;;8.25;3.40;;;;;;;;;;5042378;28;20556;-75
2023/01/26 05:26:07;;;;;;;7.03;2.92;;;;;;;;;;5036368;28;20024;-75
2023/01/26 05:28:34;;;;;;;8.18;3.75;;;;;;;;;;5036974;28;20026;-76
2023/01/26 05:31:00;;;;;;;8.80;3.53;;;;;;;;;;5046333;28;20029;-76
2023/01/26 05:33:27;;;;;;;12.52;4.10;;;;;;;;;;5036743;28;20037;-75
2023/01/26 05:35:53;;;;;;;8.30;2.95;;;;;;;;;;5038928;28;20114;-75
2023/01/26 05:38:20;;;;;;;7.13;2.85;;;;;;;;;;5037823;28;20041;-75
2023/01/26 05:40:46;;;;;;;12.00;3.15;;;;;;;;;;5039501;28;20074;-75
2023/01/26 05:43:12;;;;;;;11.75;3.15;;;;;;;;;;5039094;28;20065;-75
2023/01/26 05:45:39;;;;;;;11.23;3.28;;;;;;;;;;5036858;28;20034;-75
2023/01/26 05:48:05;;;;;;;7.47;3.60;;;;;;;;;;5040533;28;20029;-75
2023/01/26 05:50:31;;;;;;;13.23;3.20;;;;;;;;;;5038886;28;20116;-75
2023/01/26 05:52:59;;;;;;;8.18;2.95;;;;;;;;;;5040052;28;20061;-75
2023/01/26 05:55:25;;;;;;;13.88;3.28;;;;;;;;;;5039230;28;20344;-75
2023/01/26 05:57:51;;;;;;;10.80;3.70;;;;;;;;;;5044765;28;20030;-75
2023/01/26 06:00:18;;;;;;;10.20;3.05;;;;;;;;;;5038703;28;20164;-75
2023/01/26 06:02:44;;;;;;;9.05;3.90;;;;;;;;;;5037616;28;20390;-75
2023/01/26 06:05:10;;;;;;;6.10;2.80;;;;;;;;;;5048962;28;20103;-75
2023/01/26 06:07:37;;;;;;;8.50;2.65;;;;;;;;;;5044318;28;20032;-75
2023/01/26 06:10:03;;;;;;;10.02;3.50;;;;;;;;;;5043115;28;20695;-75
2023/01/26 06:12:34;;;;;;;9.43;3.08;;;;;;;;;;5040261;28;20434;-75
2023/01/26 06:15:00;;;;;;;15.82;3.60;;;;;;;;;;5047030;28;20064;-75
2023/01/26 06:17:26;;;;;;;7.53;3.30;;;;;;;;;;5050882;28;20525;-75
2023/01/26 06:19:52;;;;;;;8.15;4.22;;;;;;;;;;5045888;28;20032;-75
2023/01/26 06:22:18;;;;;;;9.23;3.22;;;;;;;;;;5037707;28;20044;-75
2023/01/26 06:24:45;;;;;;;10.15;2.65;;;;;;;;;;5035874;28;20029;-75
2023/01/26 06:27:15;;;;;;;7.80;3.50;;;;;;;;;;5042290;28;20144;-76
2023/01/26 06:29:41;;;;;;;9.82;3.22;;;;;;;;;;5044667;28;20060;-75
2023/01/26 06:32:09;;;;;;;11.13;3.65;;;;;;;;;;5040838;28;20020;-75
2023/01/26 06:34:35;;;;;;;15.52;3.20;;;;;;;;;;5038588;28;20413;-75
2023/01/26 06:37:01;;;;;;;15.95;3.47;;;;;;;;;;5030986;28;20606;-75
2023/01/26 06:39:27;;;;;;;6.43;3.08;;;;;;;;;;5037727;28;20079;-75
2023/01/26 06:41:54;;;;;;;13.43;3.95;;;;;;;;;;5040967;28;20120;-76
2023/01/26 06:44:20;;;;;;;7.35;3.30;;;;;;;;;;5042255;28;20034;-74
2023/01/26 06:46:46;;;;;;;9.48;3.10;;;;;;;;;;5040131;28;20040;-76
2023/01/26 06:49:12;;;;;;;7.32;3.17;;;;;;;;;;5041531;28;20048;-75
2023/01/26 06:51:58;;;;;;;12.45;3.50;;;;;;;;;;5039633;28;20780;-75
2023/01/26 06:54:24;;;;;;;11.23;3.92;;;;;;;;;;5040085;28;20092;-75
2023/01/26 06:56:50;;;;;;;10.30;4.85;;;;;;;;;;5043252;28;20037;-75
2023/01/26 06:59:17;;;;;;;15.13;3.90;;;;;;;;;;5046393;28;20071;-75
2023/01/26 07:01:46;;;;;;;9.57;4.13;;;;;;;;;;5032579;28;20017;-76
2023/01/26 07:04:12;;;;;;;10.68;3.25;;;;;;;;;;5039051;28;20029;-75
2023/01/26 07:06:38;;;;;;;12.48;3.63;;;;;;;;;;5036534;28;20025;-75
2023/01/26 07:09:05;;;;;;;10.40;2.90;;;;;;;;;;5042419;28;20021;-75
2023/01/26 07:11:31;;;;;;;8.52;3.22;;;;;;;;;;5046769;28;20017;-75
2023/01/26 07:13:57;;;;;;;12.15;4.57;;;;;;;;;;5043244;28;20050;-75
2023/01/26 07:16:24;;;;;;;10.15;3.15;;;;;;;;;;5031944;28;20036;-76
2023/01/26 07:18:50;;;;;;;12.23;3.85;;;;;;;;;;5039316;28;20037;-76
2023/01/26 07:21:17;;;;;;;10.35;2.92;;;;;;;;;;5038204;28;20056;-76
2023/01/26 07:23:44;;;;;;;17.45;3.58;;;;;;;;;;5033742;28;20107;-75
2023/01/26 07:26:10;;;;;;;14.05;3.83;;;;;;;;;;5044952;28;20041;-76
2023/01/26 07:28:36;;;;;;;9.20;3.15;;;;;;;;;;5047888;28;20029;-75
2023/01/26 07:31:03;;;;;;;10.65;3.60;;;;;;;;;;5044240;28;20040;-76
2023/01/26 07:33:30;;;;;;;15.07;3.58;;;;;;;;;;5034512;28;20033;-76
2023/01/26 07:35:56;;;;;;;9.50;3.00;;;;;;;;;;5035780;28;20084;-75
2023/01/26 07:38:23;;;;;;;10.82;3.38;;;;;;;;;;5041488;28;20152;-75
2023/01/26 07:40:50;;;;;;;15.50;3.70;;;;;;;;;;5038469;28;20036;-75
2023/01/26 07:43:16;;;;;;;8.10;3.15;;;;;;;;;;5040896;28;20031;-75
2023/01/26 07:45:46;;;;;;;15.93;4.43;;;;;;;;;;5043655;28;20040;-75
2023/01/26 07:48:14;;;;;;;18.05;3.60;;;;;;;;;;5044324;28;20032;-75
2023/01/26 07:50:40;;;;;;;9.48;3.72;;;;;;;;;;5046405;28;20024;-75
2023/01/26 07:53:08;;;;;;;12.60;4.50;;;;;;;;;;5041252;28;20037;-76
2023/01/26 07:55:34;;;;;;;11.73;3.60;;;;;;;;;;5044495;28;20120;-75
2023/01/26 07:58:00;;;;;;;12.13;4.00;;;;;;;;;;5039706;28;20029;-75
2023/01/26 08:00:27;;;;;;;10.60;3.15;;;;;;;;;;5035265;28;20703;-75
2023/01/26 08:02:53;;;;;;;13.90;4.15;;;;;;;;;;5040105;28;20032;-74
2023/01/26 08:05:19;;;;;;;10.82;3.25;;;;;;;;;;5032453;28;20029;-75
2023/01/26 08:07:45;;;;;;;10.88;3.58;;;;;;;;;;5038007;28;20052;-75
2023/01/26 08:10:13;;;;;;;10.35;3.63;;;;;;;;;;5039135;28;20036;-75
2023/01/26 08:12:39;;;;;;;14.50;3.08;;;;;;;;;;5034114;28;20029;-76
2023/01/26 08:15:05;;;;;;;10.45;3.33;;;;;;;;;;5037209;28;20110;-75
2023/01/26 08:17:32;;;;;;;12.57;3.33;;;;;;;;;;5041183;28;20029;-75
2023/01/26 08:19:59;;;;;;;11.65;4.32;;;;;;;;;;5044648;28;20417;-75
2023/01/26 08:22:25;;;;;;;9.93;3.45;;;;;;;;;;5020695;28;20497;-75
2023/01/26 08:24:51;;;;;;;7.55;3.58;;;;;;;;;;5021276;28;20089;-75
2023/01/26 08:27:17;;;;;;;12.80;3.13;;;;;;;;;;5015313;28;20045;-75
2023/01/26 08:29:43;;;;;;;10.95;3.95;;;;;;;;;;5017183;28;20344;-74
2023/01/26 08:32:10;;;;;;;9.50;3.13;;;;;;;;;;5017852;28;20128;-75
2023/01/26 08:34:36;;;;;;;10.63;3.10;;;;;;;;;;5020952;28;20029;-75
2023/01/26 08:37:03;;;;;;;8.43;3.60;;;;;;;;;;5017779;28;20133;-75
2023/01/26 08:39:29;;;;;;;12.80;4.03;;;;;;;;;;5015011;28;20037;-75
2023/01/26 08:41:55;;;;;;;11.43;3.97;;;;;;;;;;5013145;28;20034;-76
2023/01/26 08:44:21;;;;;;;9.13;3.90;;;;;;;;;;5022106;28;20041;-75
2023/01/26 08:46:47;;;;;;;12.57;3.30;;;;;;;;;;5024091;28;20034;-76
2023/01/26 08:49:13;;;;;;;9.80;2.72;;;;;;;;;;5018564;28;20030;-75
2023/01/26 08:51:39;;;;;;;10.18;3.88;;;;;;;;;;5024636;28;20026;-75
2023/01/26 08:54:09;;;;;;;8.73;3.30;;;;;;;;;;5023724;28;20034;-75
2023/01/26 08:56:35;;;;;;;9.88;3.20;;;;;;;;;;5020014;28;20052;-76
2023/01/26 08:59:01;;;;;;;11.20;3.45;;;;;;;;;;5014933;28;20432;-75
2023/01/26 09:01:27;;;;;;;17.63;3.75;;;;;;;;;;5027001;28;20037;-75
2023/01/26 09:03:55;;;;;;;7.18;3.70;;;;;;;;;;5017479;28;20040;-75
2023/01/26 09:06:21;;;;;;;11.15;2.72;;;;;;;;;;5020432;28;20034;-75
2023/01/26 09:08:47;;;;;;;14.65;4.32;;;;;;;;;;5022293;28;20076;-76
2023/01/26 09:11:13;;;;;;;11.45;3.05;;;;;;;;;;5033689;28;20483;-75
2023/01/26 09:13:40;;;;;;;12.48;4.35;;;;;;;;;;5022110;28;20028;-75
2023/01/26 09:16:07;;;;;;;12.75;3.35;;;;;;;;;;5020745;28;20026;-76
2023/01/26 09:18:33;;;;;;;12.38;2.70;;;;;;;;;;5023568;28;20054;-75
2023/01/26 09:21:04;;;;;;;7.80;2.85;;;;;;;;;;5033638;28;20120;-75
2023/01/26 09:23:31;;;;;;;9.10;3.67;;;;;;;;;;5034413;28;20470;-75
2023/01/26 09:25:57;;;;;;;10.65;3.30;;;;;;;;;;5036893;28;20101;-75
2023/01/26 09:28:23;;;;;;;12.10;3.20;;;;;;;;;;5040506;28;20036;-75
2023/01/26 09:30:49;;;;;;;12.65;3.85;;;;;;;;;;5038125;28;20048;-75
2023/01/26 09:33:16;;;;;;;9.30;3.45;;;;;;;;;;5038957;28;20033;-75
2023/01/26 09:35:42;;;;;;;11.27;3.67;;;;;;;;;;5040224;28;20033;-74
2023/01/26 09:38:08;;;;;;;9.63;3.63;;;;;;;;;;5035788;28;20029;-75
2023/01/26 09:40:53;;;;;;;6.45;3.78;;;;;;;;;;5034212;28;20034;-75
2023/01/26 09:43:36;;;;;;;13.85;4.25;;;;;;;;;;5030384;28;20021;-76
2023/01/26 09:46:20;;;;;;;12.30;4.30;;;;;;;;;;5042241;28;20092;-75
2023/01/26 09:48:54;;;;;;;13.20;5.70;;;;;;;;;;5035645;28;20048;-75
2023/01/26 09:51:23;;;;;;;11.55;3.95;;;;;;;;;;5034163;28;20501;-76
2023/01/26 09:53:54;;;;;;;9.73;4.25;;;;;;;;;;5036207;28;20687;-75
2023/01/26 09:56:21;;;;;;;10.15;5.13;;;;;;;;;;5044983;28;20029;-75
2023/01/26 09:59:07;;;;;;;6.85;3.85;;;;;;;;;;5046770;28;21370;-75
2023/01/26 10:01:40;;;;;;;8.98;3.65;;;;;;;;;;5031140;28;20052;-76
2023/01/26 10:04:24;;;;;;;11.18;4.32;;;;;;;;;;5037583;28;20604;-76
2023/01/26 10:06:53;;;;;;;10.82;5.13;;;;;;;;;;5038259;28;20044;-75
2023/01/26 10:09:24;;;;;;;11.23;4.53;;;;;;;;;;5031551;28;20025;-75
2023/01/26 10:12:10;;;;;;;13.70;5.13;;;;;;;;;;5037789;28;20486;-75
2023/01/26 10:14:38;;;;;;;8.38;4.28;;;;;;;;;;5037779;28;20037;-76
2023/01/26 10:17:05;;;;;;;17.85;8.75;;;;;;;;;;5036332;28;20029;-75
2023/01/26 10:19:43;;;;;;;12.10;3.78;;;;;;;;;;5041724;28;20029;-75
2023/01/26 10:22:15;;;;;;;15.02;4.72;;;;;;;;;;5042369;28;20045;-75
2023/01/26 10:24:42;;;;;;;12.77;3.88;;;;;;;;;;5038992;28;20444;-75
2023/01/26 10:27:12;;;;;;;10.43;3.47;;;;;;;;;;5034718;28;20029;-75
2023/01/26 10:29:39;;;;;;;9.60;4.00;;;;;;;;;;5033111;28;20022;-74
2023/01/26 10:32:05;;;;;;;10.13;3.25;;;;;;;;;;5035100;28;20029;-76
2023/01/26 10:34:31;;;;;;;8.25;3.25;;;;;;;;;;5043762;28;20414;-75
2023/01/26 10:37:02;;;;;;;11.02;3.35;;;;;;;;;;5033122;28;20017;-76
2023/01/26 10:39:28;;;;;;;8.55;3.63;;;;;;;;;;5045114;28;20493;-75
2023/01/26 10:42:01;;;;;;;11.48;3.90;;;;;;;;;;5030825;28;20032;-76
2023/01/26 10:44:31;;;;;;;9.68;3.33;;;;;;;;;;5041200;28;20034;-75
2023/01/26 10:47:06;;;;;;;9.98;3.60;;;;;;;;;;5034323;28;20052;-75
2023/01/26 10:49:32;;;;;;;10.27;3.75;;;;;;;;;;5049283;28;20021;-74
2023/01/26 10:52:06;;;;;;;9.23;3.10;;;;;;;;;;5044937;28;20032;-75
2023/01/26 10:54:34;;;;;;;8.30;2.83;;;;;;;;;;5041470;28;20087;-74
2023/01/26 10:57:03;;;;;;;9.40;3.50;;;;;;;;;;5042665;28;20473;-75
2023/01/26 10:59:44;;;;;;;6.00;3.25;;;;;;;;;;5031152;28;20034;-76
2023/01/26 11:02:10;;;;;;;8.85;3.30;;;;;;;;;;5045554;28;20110;-75
2023/01/26 11:04:37;;;;;;;7.30;2.50;;;;;;;;;;5042624;28;20047;-76
2023/01/26 11:07:26;;;;;;;16.52;4.20;;;;;;;;;;5039978;28;20153;-75
2023/01/26 11:09:53;;;;;;;39.88;3.63;;;;;;;;;;5035196;28;20037;-75
2023/01/26 11:12:20;;;;;;;9.45;3.05;;;;;;;;;;5037565;28;20071;-76
2023/01/26 11:15:03;;;;;;;5.95;2.85;;;;;;;;;;5037707;28;20029;-76
2023/01/26 11:17:36;;;;;;;7.95;3.28;;;;;;;;;;5036843;28;20057;-76
2023/01/26 11:20:23;;;;;;;9.40;3.03;;;;;;;;;;5039909;28;20410;-76
2023/01/26 11:22:59;;;;;;;7.57;2.65;;;;;;;;;;5005332;28;20470;-76
2023/01/26 11:25:30;;;;;;;7.57;2.67;;;;;;;;;;5031756;28;20036;-76
2023/01/26 11:28:27;;;;;;;9.18;3.00;;;;;;;;;;5038837;28;20029;-77
2023/01/26 11:31:03;;;;;;;6.53;2.65;;;;;;;;;;5043975;28;20044;-76
2023/01/26 11:33:43;;;;;;;7.32;2.63;;;;;;;;;;5037890;28;20100;-76
2023/01/26 11:36:27;;;;;;;4.68;2.35;;;;;;;;;;5038951;28;20026;-75
2023/01/26 11:39:17;;;;;;;6.70;2.45;;;;;;;;;;5035983;28;20433;-75
2023/01/26 11:41:45;;;;;;;7.70;2.53;;;;;;;;;;5036156;28;20510;-76
2023/01/26 11:44:11;;;;;;;8.10;2.85;;;;;;;;;;5041210;28;20498;-76
2023/01/26 11:46:56;;;;;;;9.70;2.67;;;;;;;;;;5032575;28;20029;-76
2023/01/26 11:49:35;;;;;;;6.55;2.55;;;;;;;;;;5037757;28;20035;-76
2023/01/26 11:52:01;;;;;;;4.60;2.25;;;;;;;;;;5034835;28;20029;-75
2023/01/26 11:54:53;;;;;;;7.82;2.67;;;;;;;;;;5039796;28;20029;-76
2023/01/26 11:57:23;;;;;;;4.70;2.15;;;;;;;;;;5034723;28;20075;-76
2023/01/26 11:59:52;;;;;;;8.50;2.85;;;;;;;;;;5037711;28;20154;-76
2023/01/26 12:02:28;;;;;;;10.68;2.40;;;;;;;;;;5033698;28;20466;-76
2023/01/26 12:04:55;;;;;;;4.68;2.45;;;;;;;;;;5038107;28;20025;-75
2023/01/26 12:07:29;;;;;;;5.35;2.38;;;;;;;;;;5035595;28;20467;-76
2023/01/26 12:09:56;;;;;;;5.43;2.47;;;;;;;;;;5031804;28;20470;-76
2023/01/26 12:12:34;;;;;;;6.22;2.85;;;;;;;;;;5038009;28;20190;-76
2023/01/26 12:15:11;;;;;;;7.03;2.80;;;;;;;;;;5043782;28;20029;-75
2023/01/26 12:17:53;;;;;;;7.03;2.50;;;;;;;;;;5037578;28;20038;-76
2023/01/26 12:20:25;;;;;;;4.82;2.78;;;;;;;;;;5042549;28;20121;-76
2023/01/26 12:23:00;;;;;;;7.45;2.55;;;;;;;;;;5039515;28;20037;-76
2023/01/26 12:25:32;;;;;;;8.15;2.35;;;;;;;;;;5049428;28;20448;-75
2023/01/26 12:28:01;;;;;;;10.35;3.28;;;;;;;;;;5039924;28;20095;-77
2023/01/26 12:30:34;;;;;;;10.82;3.45;;;;;;;;;;5039988;28;20049;-75
2023/01/26 12:33:02;;;;;;;8.43;2.35;;;;;;;;;;5041798;28;20379;-75
2023/01/26 12:35:43;;;;;;;7.82;2.80;;;;;;;;;;5042290;28;20029;-75
2023/01/26 12:38:16;;;;;;;9.00;2.45;;;;;;;;;;5038592;28;20032;-76
2023/01/26 12:40:48;;;;;;;5.50;2.90;;;;;;;;;;5040890;28;20092;-76
2023/01/26 12:43:17;;;;;;;8.55;2.22;;;;;;;;;;5040902;28;20132;-76
2023/01/26 12:45:45;;;;;;;5.35;2.08;;;;;;;;;;5044875;28;20087;-76
2023/01/26 12:48:21;;;;;;;10.95;2.85;;;;;;;;;;5043099;28;20494;-77
2023/01/26 12:50:53;;;;;;;6.50;2.30;;;;;;;;;;5048231;28;20021;-76
2023/01/26 12:53:29;;;;;;;11.32;2.38;;;;;;;;;;5038907;28;20060;-76
2023/01/26 12:56:04;;;;;;;8.15;3.20;;;;;;;;;;5037940;28;20021;-76
2023/01/26 12:58:35;;;;;;;11.15;2.65;;;;;;;;;;5045236;28;20370;-78
2023/01/26 13:01:21;;;;;;;5.85;2.55;;;;;;;;;;5044770;28;20028;-76
2023/01/26 13:03:47;;;;;;;;;;;;;;;;;;5036185;28;20091;-76
2023/01/26 13:06:13;;;;;;;10.10;3.90;;;;;;;;;;5040720;28;19913;-77
2023/01/26 13:08:40;;;;;;;16.23;2.97;;;;;;;;;;5037445;28;20104;-76
2023/01/26 13:11:07;;;;;;;4.03;2.30;;;;;;;;;;5041518;28;20569;-76
2023/01/26 13:13:35;;;;;;;4.70;2.40;;;;;;;;;;5036295;28;20029;-77
2023/01/26 13:16:16;;;;;;;8.15;2.40;;;;;;;;;;5031904;28;20021;-76
2023/01/26 13:18:58;;;;;;;6.90;2.60;;;;;;;;;;5037384;28;20037;-76
2023/01/26 13:21:40;;;;;;;13.20;3.50;;;;;;;;;;5041985;28;20091;-76
2023/01/26 13:24:16;;;;;;;6.93;3.13;;;;;;;;;;5041442;28;20036;-76
2023/01/26 13:26:42;;;;;;;;;;;;;;;;;;5038887;28;20041;-76
2023/01/26 13:29:26;;;;;;;5.82;2.80;;;;;;;;;;5035419;28;19917;-77
2023/01/26 13:32:15;;;;;;;8.77;2.67;;;;;;;;;;5038074;28;20048;-76
2023/01/26 13:34:47;;;;;;;8.35;2.78;;;;;;;;;;5019930;28;20105;-76
2023/01/26 13:37:35;;;;;;;9.50;2.65;;;;;;;;;;5038104;28;20061;-76
2023/01/26 13:40:21;;;;;;;8.60;2.70;;;;;;;;;;5039586;28;20868;-79
2023/01/26 13:42:51;;;;;;;15.10;4.32;;;;;;;;;;5045319;28;20048;-77
2023/01/26 13:45:23;;;;;;;9.93;2.35;;;;;;;;;;5038387;28;20045;-76
2023/01/26 13:47:50;;;;;;;5.97;2.35;;;;;;;;;;5037676;28;20037;-76
2023/01/26 13:50:22;;;;;;;5.47;2.42;;;;;;;;;;5035521;28;20105;-75
2023/01/26 13:52:49;;;;;;;5.65;2.10;;;;;;;;;;5034574;28;20033;-76
2023/01/26 13:55:29;;;;;;;7.85;2.33;;;;;;;;;;5015064;23;20074;-81
2023/01/26 13:58:18;;;;;;;4.95;2.30;;;;;;;;;;4985619;28;20327;-76
2023/01/26 14:01:01;;;;;;;9.90;2.60;;;;;;;;;;4979974;28;20031;-76
2023/01/26 14:03:29;;;;;;;5.70;2.20;;;;;;;;;;4985763;28;20027;-76
2023/01/26 14:06:07;;;;;;;7.55;2.38;;;;;;;;;;4993093;28;20519;-78
2023/01/26 14:08:34;;;;;;;8.27;2.88;;;;;;;;;;4995219;28;20099;-75
2023/01/26 14:11:02;;;;;;;7.40;2.35;;;;;;;;;;4980327;28;20028;-77
2023/01/26 14:13:31;;;;;;;4.65;2.75;;;;;;;;;;4984180;28;20051;-77
2023/01/26 14:15:59;;;;;;;10.90;4.05;;;;;;;;;;4983418;28;20019;-76
2023/01/26 14:18:25;;;;;;;3.92;2.90;;;;;;;;;;4985071;28;20027;-77
2023/01/26 14:20:57;;;;;;;5.35;2.90;;;;;;;;;;4985410;28;20021;-76
2023/01/26 14:23:27;;;;;;;4.35;2.13;;;;;;;;;;4987706;28;20030;-76
2023/01/26 14:25:56;;;;;;;7.90;2.40;;;;;;;;;;4982611;28;20026;-77
2023/01/26 14:28:24;;;;;;;4.82;2.35;;;;;;;;;;4997819;28;20035;-76
2023/01/26 14:30:52;;;;;;;6.65;3.05;;;;;;;;;;4985227;28;20033;-77
2023/01/26 14:33:26;;;;;;;10.60;3.08;;;;;;;;;;4986169;28;20457;-78
2023/01/26 14:35:57;;;;;;;7.00;2.20;;;;;;;;;;4987924;28;20114;-78
2023/01/26 14:38:23;;;;;;;6.40;2.10;;;;;;;;;;4984038;28;20035;-77
2023/01/26 14:40:50;;;;;;;6.45;2.35;;;;;;;;;;4990870;28;20029;-75
2023/01/26 14:43:17;;;;;;;5.00;2.08;;;;;;;;;;5000953;28;20495;-81
2023/01/26 14:45:45;;;;;;;7.32;2.80;;;;;;;;;;4988992;28;20022;-76
2023/01/26 14:48:15;;;;;;;5.53;2.58;;;;;;;;;;4988645;28;20038;-78
2023/01/26 14:50:44;;;;;;;6.65;2.80;;;;;;;;;;4994799;28;20122;-76
2023/01/26 14:53:18;;;;;;;8.05;2.50;;;;;;;;;;4992699;28;20019;-80
2023/01/26 14:55:46;;;;;;;6.93;3.20;;;;;;;;;;5008385;28;20065;-79
2023/01/26 14:58:15;;;;;;;8.75;3.15;;;;;;;;;;5010828;28;20041;-80
2023/01/26 15:00:47;;;;;;;5.35;2.22;;;;;;;;;;4994832;28;20037;-83
2023/01/26 15:03:21;;;;;;;8.18;2.38;;;;;;;;;;4996514;28;20027;-84
2023/01/26 15:06:03;;;;;;;5.15;2.30;;;;;;;;;;5012547;28;20111;-83
2023/01/26 15:08:33;;;;;;;11.88;2.85;;;;;;;;;;4994750;28;20031;-83
2023/01/26 15:13:55;;;;;;;7.88;3.35;;;;;;;;;;4992376;28;20029;-78
2023/01/26 15:16:50;;;;;;;10.48;2.22;;;;;;;;;;5009797;28;20022;-79
2023/01/26 15:19:22;;;;;;;8.05;2.88;;;;;;;;;;4995171;28;20011;-79
2023/01/26 15:21:49;;;;;;;10.07;3.90;;;;;;;;;;4995307;28;20015;-82
2023/01/26 15:24:21;;;;;;;6.07;3.05;;;;;;;;;;5006687;28;20214;-78
2023/01/26 15:30:00;;;;;;;9.95;4.10;;;;;;;;;;4988962;28;20039;-79
2023/01/26 15:32:30;;;;;;;13.10;5.85;;;;;;;;;;4989894;28;20019;-81
2023/01/26 15:35:07;;;;;;;12.77;3.80;;;;;;;;;;5005514;28;20057;-79
2023/01/26 15:37:42;;;;;;;21.48;8.50;;;;;;;;;;4991005;28;20122;-79
2023/01/26 15:40:10;;;;;;;14.20;5.45;;;;;;;;;;4990853;28;20007;-83
2023/01/26 15:42:40;;;;;;;16.48;5.57;;;;;;;;;;5008812;28;20031;-84
2023/01/26 15:45:19;;;;;;;15.32;5.03;;;;;;;;;;5009372;28;20027;-79